Time;durP1;ratioP1;P1;durP2;ratioP2;P2;SDS_P1;SDS_P2;PMS_P1;PMS_P2;Temp;Humidity;BMP_temperature;BMP_pressure;BME280_temperature;BME280_humidity;BME280_pressure;Samples;Min_cycle;Max_cycle;Signal;HPM_P1;HPM_P2
2023/06/05 00:01:25;;;;;;;0.40;0.40;;;8.80;99.90;;;;;;4923869;28;20442;-83
2023/06/05 00:03:53;;;;;;;0.35;0.35;;;8.80;99.90;;;;;;4915305;29;20122;-84
2023/06/05 00:06:20;;;;;;;0.30;0.30;;;8.80;99.90;;;;;;4930950;28;20062;-85
2023/06/05 00:08:47;;;;;;;1.73;0.70;;;8.80;99.90;;;;;;4919512;29;20409;-83
2023/06/05 00:11:14;;;;;;;0.47;0.47;;;8.80;99.90;;;;;;4920708;29;20539;-84
2023/06/05 00:13:41;;;;;;;1.20;0.70;;;8.80;99.90;;;;;;4920419;28;20065;-84
2023/06/05 00:16:08;;;;;;;0.70;0.43;;;8.80;99.90;;;;;;4913935;29;20051;-84
2023/06/05 00:18:35;;;;;;;2.88;0.50;;;8.80;99.90;;;;;;4911586;28;20064;-85
2023/06/05 00:21:03;;;;;;;1.13;0.50;;;8.80;99.90;;;;;;4917822;28;20066;-85
2023/06/05 00:23:30;;;;;;;1.30;0.70;;;8.70;99.90;;;;;;4914126;28;20353;-84
2023/06/05 00:25:57;;;;;;;1.10;0.40;;;8.70;99.90;;;;;;4913901;29;20838;-84
2023/06/05 00:28:25;;;;;;;0.30;0.30;;;8.70;99.90;;;;;;4915958;28;20053;-82
2023/06/05 00:30:53;;;;;;;1.20;0.60;;;8.70;99.90;;;;;;4919101;28;21695;-82
2023/06/05 00:33:20;;;;;;;1.10;0.45;;;8.70;99.90;;;;;;4918857;29;20395;-85
2023/06/05 00:35:47;;;;;;;1.15;0.50;;;8.70;99.90;;;;;;4932030;28;20070;-84
2023/06/05 00:38:14;;;;;;;0.60;0.52;;;8.70;99.90;;;;;;4921336;29;20577;-83
2023/06/05 00:40:41;;;;;;;0.93;0.50;;;8.70;99.90;;;;;;4916769;28;20544;-85
2023/06/05 00:43:08;;;;;;;1.02;0.70;;;8.60;99.90;;;;;;4934137;28;20138;-84
2023/06/05 00:45:35;;;;;;;0.95;0.50;;;8.60;99.90;;;;;;4930742;28;20457;-82
2023/06/05 00:48:03;;;;;;;1.15;0.60;;;8.60;99.90;;;;;;4920413;28;20287;-85
2023/06/05 00:50:33;;;;;;;0.80;0.52;;;8.60;99.90;;;;;;4936712;28;20051;-83
2023/06/05 00:53:02;;;;;;;0.80;0.55;;;8.60;99.90;;;;;;4919676;28;20078;-84
2023/06/05 00:55:29;;;;;;;3.35;0.60;;;8.60;99.90;;;;;;4934753;28;20505;-84
2023/06/05 00:57:56;;;;;;;0.57;0.57;;;8.60;99.90;;;;;;4925994;28;20074;-86
2023/06/05 01:00:25;;;;;;;1.58;0.50;;;8.60;99.90;;;;;;4917905;28;20047;-84
2023/06/05 01:02:53;;;;;;;0.65;0.65;;;8.60;99.90;;;;;;4926984;29;20051;-84
2023/06/05 01:05:20;;;;;;;2.75;0.65;;;8.60;99.90;;;;;;4927799;29;22461;-83
2023/06/05 01:07:48;;;;;;;0.32;0.25;;;8.60;99.90;;;;;;4921826;28;20107;-84
2023/06/05 01:10:15;;;;;;;0.50;0.28;;;8.60;99.90;;;;;;4917424;28;20082;-83
2023/06/05 01:12:54;;;;;;;0.80;0.38;;;8.70;99.90;;;;;;4918105;28;20055;-85
2023/06/05 01:15:28;;;;;;;1.08;0.60;;;8.60;99.90;;;;;;4937208;28;20056;-84
2023/06/05 01:18:00;;;;;;;1.85;0.75;;;8.60;99.90;;;;;;4934270;28;20059;-84
2023/06/05 01:20:35;;;;;;;7.40;1.05;;;8.70;99.90;;;;;;4924973;28;21237;-83
2023/06/05 01:23:06;;;;;;;1.20;0.57;;;8.70;99.90;;;;;;4919601;28;20507;-83
2023/06/05 01:25:36;;;;;;;0.47;0.47;;;8.70;99.90;;;;;;4921653;28;20051;-84
2023/06/05 01:28:17;;;;;;;1.27;0.50;;;8.70;99.90;;;;;;4918170;28;20469;-84
2023/06/05 01:31:15;;;;;;;1.15;0.60;;;8.70;99.90;;;;;;4915290;29;20437;-82
2023/06/05 01:33:50;;;;;;;2.85;0.77;;;8.70;99.90;;;;;;4934634;28;20685;-84
2023/06/05 01:36:20;;;;;;;1.67;0.70;;;8.70;99.90;;;;;;4929400;28;20059;-82
2023/06/05 01:38:48;;;;;;;0.88;0.70;;;8.70;99.90;;;;;;4921487;28;20075;-84
2023/06/05 01:41:16;;;;;;;1.10;0.80;;;8.80;99.90;;;;;;4928799;29;20056;-85
2023/06/05 01:43:47;;;;;;;1.23;1.02;;;8.80;99.90;;;;;;4924990;28;20051;-85
2023/06/05 01:46:18;;;;;;;0.60;0.60;;;8.80;99.90;;;;;;4929580;28;20060;-83
2023/06/05 01:48:46;;;;;;;2.10;1.38;;;8.80;99.90;;;;;;4919638;29;20781;-85
2023/06/05 01:51:13;;;;;;;1.17;0.63;;;8.90;99.90;;;;;;4907183;29;20047;-81
2023/06/05 01:53:40;;;;;;;1.45;0.63;;;8.80;99.90;;;;;;4921159;28;20047;-84
2023/06/05 01:56:08;;;;;;;3.10;0.70;;;8.80;99.90;;;;;;4932629;28;20099;-84
2023/06/05 01:58:36;;;;;;;0.57;0.57;;;8.80;99.90;;;;;;4919465;28;20107;-84
2023/06/05 02:01:05;;;;;;;0.98;0.60;;;8.80;99.90;;;;;;4917902;28;20063;-82
2023/06/05 02:03:32;;;;;;;0.90;0.70;;;8.90;99.90;;;;;;4923212;28;20055;-84
2023/06/05 02:06:00;;;;;;;2.85;0.80;;;8.90;99.90;;;;;;4919474;29;20213;-84
2023/06/05 02:08:28;;;;;;;0.52;0.47;;;8.90;99.90;;;;;;4933234;28;20488;-82
2023/06/05 02:10:55;;;;;;;2.05;0.80;;;8.90;99.90;;;;;;4922345;28;20539;-84
2023/06/05 02:13:24;;;;;;;0.93;0.57;;;8.90;99.90;;;;;;4923321;28;20052;-82
2023/06/05 02:15:56;;;;;;;0.88;0.80;;;8.90;99.90;;;;;;4919000;28;20063;-84
2023/06/05 02:18:25;;;;;;;3.35;1.08;;;9.00;99.90;;;;;;4931502;28;20061;-82
2023/06/05 02:20:56;;;;;;;3.90;1.05;;;9.00;99.90;;;;;;4927854;28;20063;-82
2023/06/05 02:23:23;;;;;;;2.35;0.60;;;9.00;99.90;;;;;;4937615;28;20122;-83
2023/06/05 02:25:50;;;;;;;0.63;0.60;;;9.10;99.90;;;;;;4910703;29;20051;-82
2023/06/05 02:28:19;;;;;;;1.50;0.75;;;9.10;99.90;;;;;;4937695;28;20508;-84
2023/06/05 02:30:47;;;;;;;1.35;1.25;;;9.20;99.90;;;;;;4932329;28;20055;-83
2023/06/05 02:33:14;;;;;;;1.25;0.65;;;9.20;99.90;;;;;;4916795;29;20048;-84
2023/06/05 02:35:42;;;;;;;2.53;1.13;;;9.20;99.90;;;;;;4924317;28;20138;-85
2023/06/05 02:38:12;;;;;;;1.25;1.13;;;9.20;99.90;;;;;;4919450;28;20482;-83
2023/06/05 02:40:39;;;;;;;1.52;0.65;;;9.20;99.90;;;;;;4918343;28;23397;-85
2023/06/05 02:43:08;;;;;;;9.02;0.90;;;9.30;99.90;;;;;;4929989;28;20075;-84
2023/06/05 02:45:35;;;;;;;2.63;1.35;;;9.30;99.90;;;;;;4907701;29;20040;-84
2023/06/05 02:48:03;;;;;;;3.28;0.90;;;9.30;99.90;;;;;;4930342;28;20552;-83
2023/06/05 02:50:31;;;;;;;1.08;0.68;;;9.40;99.90;;;;;;4917771;28;20071;-82
2023/06/05 02:53:01;;;;;;;;;;;9.40;99.90;;;;;;4923993;28;20062;-81
2023/06/05 02:55:32;;;;;;;2.22;1.02;;;9.40;99.90;;;;;;4935574;28;20306;-84
2023/06/05 02:58:05;;;;;;;2.20;1.20;;;9.40;99.90;;;;;;4936074;28;20659;-83
2023/06/05 03:00:40;;;;;;;3.85;0.93;;;9.40;99.90;;;;;;4914707;28;21031;-84
2023/06/05 03:03:07;;;;;;;1.10;0.63;;;9.40;99.90;;;;;;4915164;29;20596;-81
2023/06/05 03:05:35;;;;;;;1.73;0.80;;;9.50;99.90;;;;;;4932003;28;20068;-82
2023/06/05 03:08:10;;;;;;;2.05;0.93;;;9.60;99.90;;;;;;4909575;29;20062;-83
2023/06/05 03:10:37;;;;;;;1.40;0.70;;;9.60;99.90;;;;;;4916461;28;20107;-84
2023/06/05 03:13:05;;;;;;;2.50;1.33;;;9.60;99.90;;;;;;4930938;28;20134;-85
2023/06/05 03:15:35;;;;;;;0.73;0.73;;;9.70;99.90;;;;;;4920435;28;20403;-86
2023/06/05 03:18:03;;;;;;;1.48;1.02;;;9.70;99.90;;;;;;4935830;28;20050;-85
2023/06/05 03:20:30;;;;;;;2.45;1.00;;;9.70;99.90;;;;;;4929590;28;20052;-85
2023/06/05 03:22:57;;;;;;;1.88;1.17;;;9.80;99.90;;;;;;4919460;28;20157;-85
2023/06/05 03:25:24;;;;;;;2.67;1.55;;;9.80;99.90;;;;;;4941895;28;20118;-85
2023/06/05 03:27:55;;;;;;;1.55;1.02;;;9.90;99.90;;;;;;4936913;28;20062;-83
2023/06/05 03:30:25;;;;;;;2.72;1.50;;;9.90;99.90;;;;;;4919346;28;20060;-82
2023/06/05 03:32:54;;;;;;;1.98;1.88;;;9.90;99.90;;;;;;4929647;28;20052;-84
2023/06/05 03:35:22;;;;;;;1.10;0.95;;;10.00;99.90;;;;;;4931910;28;20052;-82
2023/06/05 03:37:50;;;;;;;1.80;1.02;;;10.00;99.90;;;;;;4934654;28;20806;-83
2023/06/05 03:40:17;;;;;;;1.58;0.93;;;10.10;99.90;;;;;;4933173;28;20054;-84
2023/06/05 03:42:44;;;;;;;1.95;1.15;;;10.10;99.90;;;;;;4911330;29;20524;-84
2023/06/05 03:45:13;;;;;;;3.92;0.90;;;10.20;99.90;;;;;;4920286;28;20465;-82
2023/06/05 03:47:41;;;;;;;0.90;0.90;;;10.20;99.90;;;;;;4933613;28;20130;-86
2023/06/05 03:50:11;;;;;;;6.88;3.10;;;10.30;99.90;;;;;;4936293;28;20048;-84
2023/06/05 03:52:42;;;;;;;2.13;1.00;;;10.30;99.90;;;;;;4928881;28;20062;-86
2023/06/05 03:55:09;;;;;;;1.80;1.38;;;10.40;99.90;;;;;;4936437;28;20048;-85
2023/06/05 03:57:37;;;;;;;1.80;1.27;;;10.40;99.90;;;;;;4917194;29;20492;-83
2023/06/05 04:00:09;;;;;;;2.45;1.20;;;10.50;99.90;;;;;;4924204;28;20492;-82
2023/06/05 04:02:43;;;;;;;2.28;1.20;;;10.50;99.90;;;;;;4933600;28;20163;-84
2023/06/05 04:05:14;;;;;;;1.60;1.33;;;10.50;99.90;;;;;;4923566;29;20047;-82
2023/06/05 04:07:41;;;;;;;1.48;1.05;;;10.60;99.90;;;;;;4917740;28;20574;-84
2023/06/05 04:10:09;;;;;;;6.57;1.23;;;10.60;99.90;;;;;;4928332;28;20121;-85
2023/06/05 04:12:36;;;;;;;2.33;1.13;;;10.70;99.90;;;;;;4922084;28;20078;-84
2023/06/05 04:15:05;;;;;;;2.30;1.15;;;10.80;99.90;;;;;;4917879;28;20051;-85
2023/06/05 04:17:32;;;;;;;2.72;0.93;;;10.90;99.90;;;;;;4918369;29;20056;-85
2023/06/05 04:19:59;;;;;;;1.83;1.13;;;10.90;99.90;;;;;;4918583;28;20472;-85
2023/06/05 04:22:27;;;;;;;4.63;1.50;;;11.00;99.90;;;;;;4929429;28;20079;-83
2023/06/05 04:24:54;;;;;;;2.17;1.50;;;11.10;99.90;;;;;;4926967;28;20060;-84
2023/06/05 04:27:28;;;;;;;3.92;1.77;;;11.10;99.90;;;;;;4937082;28;20420;-83
2023/06/05 04:30:02;;;;;;;2.35;1.73;;;11.20;99.90;;;;;;4938063;28;20524;-85
2023/06/05 04:32:34;;;;;;;2.55;1.38;;;11.20;99.90;;;;;;4937446;28;20119;-82
2023/06/05 04:35:01;;;;;;;1.88;1.60;;;11.30;99.90;;;;;;4941563;28;20052;-83
2023/06/05 04:37:28;;;;;;;3.15;1.50;;;11.30;99.90;;;;;;4920111;28;20067;-84
2023/06/05 04:39:55;;;;;;;4.95;1.70;;;11.40;99.90;;;;;;4924303;29;20682;-83
2023/06/05 04:42:22;;;;;;;1.55;1.38;;;11.50;99.90;;;;;;4931574;28;21343;-82
2023/06/05 04:44:57;;;;;;;1.20;1.08;;;11.50;99.90;;;;;;4938835;28;20051;-81
2023/06/05 04:47:25;;;;;;;3.75;1.70;;;11.60;99.90;;;;;;4933608;28;20138;-82
2023/06/05 04:49:54;;;;;;;3.03;1.75;;;11.70;99.90;;;;;;4936033;28;20075;-85
2023/06/05 04:52:23;;;;;;;4.15;1.25;;;11.80;99.90;;;;;;4935266;28;20048;-81
2023/06/05 04:54:51;;;;;;;2.50;2.30;;;11.80;99.90;;;;;;4920674;28;20059;-84
2023/06/05 04:57:18;;;;;;;3.00;1.55;;;11.90;99.90;;;;;;4938796;28;20135;-83
2023/06/05 04:59:46;;;;;;;3.30;1.58;;;12.00;99.90;;;;;;4921529;29;20064;-84
2023/06/05 05:02:15;;;;;;;2.15;1.25;;;12.00;99.90;;;;;;4923255;28;20083;-83
2023/06/05 05:04:44;;;;;;;2.90;2.17;;;12.10;99.90;;;;;;4935309;28;20690;-83
2023/06/05 05:07:15;;;;;;;2.85;1.83;;;12.10;99.90;;;;;;4917422;28;20572;-81
2023/06/05 05:09:44;;;;;;;2.33;1.23;;;12.20;99.90;;;;;;4925439;29;20055;-83
2023/06/05 05:12:12;;;;;;;4.78;1.20;;;12.30;99.90;;;;;;4916148;29;20115;-84
2023/06/05 05:14:44;;;;;;;2.63;1.20;;;12.30;99.90;;;;;;4926084;28;20558;-85
2023/06/05 05:17:11;;;;;;;5.72;1.75;;;12.30;99.90;;;;;;4938851;28;20138;-86
2023/06/05 05:19:40;;;;;;;4.97;1.65;;;12.40;99.90;;;;;;4922396;28;20837;-83
2023/06/05 05:22:08;;;;;;;4.00;1.50;;;12.30;99.90;;;;;;4924398;28;20059;-84
2023/06/05 05:24:35;;;;;;;3.90;1.23;;;12.30;99.90;;;;;;4939272;28;20642;-84
2023/06/05 05:27:03;;;;;;;2.00;1.48;;;12.30;99.90;;;;;;4920695;29;20154;-85
2023/06/05 05:29:30;;;;;;;1.90;1.45;;;12.30;99.90;;;;;;4941320;28;20445;-85
2023/06/05 05:31:57;;;;;;;4.93;2.03;;;12.40;99.90;;;;;;4925179;28;20056;-85
2023/06/05 05:34:24;;;;;;;4.30;2.13;;;12.40;99.90;;;;;;4932192;28;20512;-82
2023/06/05 05:36:51;;;;;;;2.65;1.50;;;12.50;99.90;;;;;;4917666;28;20901;-83
2023/06/05 05:39:20;;;;;;;9.98;2.42;;;12.50;99.90;;;;;;4936921;28;20154;-85
2023/06/05 05:41:47;;;;;;;1.80;1.48;;;12.50;99.90;;;;;;4919924;28;20523;-84
2023/06/05 05:44:14;;;;;;;5.55;1.25;;;12.50;99.90;;;;;;4933667;29;20538;-84
2023/06/05 05:46:41;;;;;;;2.08;1.67;;;12.50;99.90;;;;;;4923084;28;20098;-83
2023/06/05 05:49:08;;;;;;;7.95;1.17;;;12.50;99.90;;;;;;4917093;28;20058;-83
2023/06/05 05:51:35;;;;;;;7.15;2.35;;;12.50;99.90;;;;;;4915514;28;20051;-82
2023/06/05 05:54:02;;;;;;;3.75;1.50;;;12.50;99.90;;;;;;4927513;29;20413;-84
2023/06/05 05:56:29;;;;;;;2.50;1.73;;;12.50;99.90;;;;;;4921050;28;20056;-84
2023/06/05 05:58:56;;;;;;;4.93;2.03;;;12.50;99.90;;;;;;4934858;28;20063;-85
2023/06/05 06:01:23;;;;;;;2.78;1.50;;;12.60;99.90;;;;;;4923802;28;20760;-82
2023/06/05 06:03:50;;;;;;;3.10;1.48;;;12.70;99.90;;;;;;4921134;28;20150;-83
2023/06/05 06:06:17;;;;;;;9.50;1.88;;;12.80;99.90;;;;;;4921216;28;20059;-84
2023/06/05 06:08:44;;;;;;;3.05;1.58;;;12.80;99.90;;;;;;4924834;28;20055;-85
2023/06/05 06:11:11;;;;;;;3.40;1.70;;;12.90;99.90;;;;;;4919892;28;20052;-84
2023/06/05 06:13:38;;;;;;;5.55;2.33;;;12.90;99.90;;;;;;4932425;28;20052;-85
2023/06/05 06:16:05;;;;;;;2.83;1.27;;;12.80;99.90;;;;;;4918553;29;20475;-83
2023/06/05 06:18:32;;;;;;;5.53;2.05;;;12.90;99.90;;;;;;4916550;28;20147;-83
2023/06/05 06:21:00;;;;;;;4.03;1.50;;;13.00;99.90;;;;;;4933509;28;20060;-85
2023/06/05 06:23:27;;;;;;;3.53;1.42;;;12.90;99.90;;;;;;4917468;29;20059;-84
2023/06/05 06:25:53;;;;;;;1.60;1.50;;;12.90;99.90;;;;;;4928209;28;20043;-86
2023/06/05 06:28:20;;;;;;;3.72;2.55;;;12.90;99.90;;;;;;4917515;28;20055;-82
2023/06/05 06:30:48;;;;;;;4.18;1.83;;;12.90;99.90;;;;;;4916719;29;20048;-85
2023/06/05 06:33:17;;;;;;;3.50;2.15;;;12.90;99.90;;;;;;4916201;28;20052;-84
2023/06/05 06:35:44;;;;;;;2.53;1.80;;;13.00;99.90;;;;;;4938128;28;20047;-83
2023/06/05 06:38:11;;;;;;;3.00;2.20;;;13.00;99.90;;;;;;4918893;29;20616;-84
2023/06/05 06:40:38;;;;;;;2.50;2.30;;;13.10;99.90;;;;;;4915920;28;20517;-84
2023/06/05 06:43:05;;;;;;;1.48;1.38;;;13.20;99.90;;;;;;4912807;28;20056;-83
2023/06/05 06:45:41;;;;;;;2.40;2.15;;;13.30;99.90;;;;;;4935355;28;20055;-83
2023/06/05 06:48:08;;;;;;;2.45;1.75;;;13.30;99.90;;;;;;4934016;28;20650;-83
2023/06/05 06:50:35;;;;;;;2.95;1.85;;;13.30;99.90;;;;;;4920152;28;20106;-84
2023/06/05 06:53:03;;;;;;;2.10;1.10;;;13.30;99.90;;;;;;4922729;28;20122;-84
2023/06/05 06:55:30;;;;;;;3.05;1.77;;;13.30;99.90;;;;;;4917628;28;20047;-84
2023/06/05 06:57:57;;;;;;;7.00;2.20;;;13.30;99.90;;;;;;4917230;29;20063;-85
2023/06/05 07:00:24;;;;;;;1.92;1.80;;;13.30;99.90;;;;;;4917274;28;20134;-83
2023/06/05 07:02:51;;;;;;;3.80;2.15;;;13.30;99.90;;;;;;4929814;28;20051;-83
2023/06/05 07:05:19;;;;;;;2.80;2.28;;;13.30;99.90;;;;;;4932394;28;20446;-84
2023/06/05 07:07:47;;;;;;;1.42;1.20;;;13.30;99.90;;;;;;4924973;28;20056;-83
2023/06/05 07:10:14;;;;;;;3.22;1.88;;;13.30;99.90;;;;;;4919586;28;20066;-81
2023/06/05 07:12:41;;;;;;;2.95;2.05;;;13.30;99.90;;;;;;4915028;28;20044;-84
2023/06/05 07:15:08;;;;;;;2.55;2.03;;;13.30;99.90;;;;;;4915123;28;20773;-82
2023/06/05 07:17:35;;;;;;;3.90;1.92;;;13.30;99.90;;;;;;4917668;28;20064;-84
2023/06/05 07:20:05;;;;;;;3.58;1.98;;;13.30;99.90;;;;;;4930250;28;20553;-85
2023/06/05 07:22:32;;;;;;;3.47;2.22;;;13.30;99.90;;;;;;4920172;28;20075;-81
2023/06/05 07:25:00;;;;;;;4.25;1.65;;;13.30;99.90;;;;;;4928166;28;20059;-83
2023/06/05 07:27:28;;;;;;;5.43;2.50;;;13.20;99.90;;;;;;4915091;28;20091;-84
2023/06/05 07:29:56;;;;;;;2.10;1.90;;;13.30;99.90;;;;;;4928748;28;20054;-84
2023/06/05 07:32:23;;;;;;;3.15;2.22;;;13.30;99.90;;;;;;4919031;28;20075;-83
2023/06/05 07:34:51;;;;;;;1.75;1.65;;;13.30;99.90;;;;;;4917084;29;20051;-85
2023/06/05 07:37:18;;;;;;;2.83;2.63;;;13.30;99.90;;;;;;4934126;28;20521;-82
2023/06/05 07:39:46;;;;;;;4.75;2.50;;;13.40;99.90;;;;;;4919836;28;20134;-84
2023/06/05 07:42:14;;;;;;;2.55;2.00;;;13.50;99.90;;;;;;4916831;29;20470;-84
2023/06/05 07:44:42;;;;;;;3.17;2.67;;;13.50;99.90;;;;;;4917857;28;20063;-85
2023/06/05 07:47:09;;;;;;;3.42;2.50;;;13.50;99.90;;;;;;4917485;28;20049;-82
2023/06/05 07:49:36;;;;;;;2.55;2.33;;;13.60;99.90;;;;;;4917650;28;20147;-85
2023/06/05 07:52:03;;;;;;;3.67;2.33;;;13.70;99.90;;;;;;4931999;28;20378;-84
2023/06/05 07:54:30;;;;;;;3.92;2.25;;;13.70;99.90;;;;;;4928898;28;20488;-84
2023/06/05 07:56:58;;;;;;;2.47;2.28;;;13.80;99.90;;;;;;4919137;28;20051;-85
2023/06/05 07:59:27;;;;;;;6.80;1.80;;;13.90;99.90;;;;;;4932267;28;20052;-82
2023/06/05 08:01:55;;;;;;;6.57;2.20;;;14.00;99.90;;;;;;4914377;28;20054;-83
2023/06/05 08:04:24;;;;;;;6.38;2.35;;;14.00;99.90;;;;;;4913671;28;20572;-81
2023/06/05 08:06:52;;;;;;;3.72;1.70;;;14.10;99.90;;;;;;4915258;28;20048;-84
2023/06/05 08:09:19;;;;;;;6.13;1.65;;;14.20;99.90;;;;;;4914904;28;20079;-82
2023/06/05 08:11:46;;;;;;;5.78;2.15;;;14.30;99.90;;;;;;4922831;28;20099;-85
2023/06/05 08:14:13;;;;;;;1.70;1.45;;;14.50;99.90;;;;;;4926608;28;20044;-83
2023/06/05 08:16:40;;;;;;;4.88;1.50;;;14.70;99.90;;;;;;4918423;28;20087;-84
2023/06/05 08:19:07;;;;;;;2.38;1.20;;;14.70;99.90;;;;;;4915339;29;21162;-82
2023/06/05 08:21:34;;;;;;;4.80;2.15;;;14.70;99.90;;;;;;4926281;28;20119;-81
2023/06/05 08:24:01;;;;;;;2.40;1.63;;;14.80;99.90;;;;;;4913705;28;20055;-84
2023/06/05 08:26:29;;;;;;;1.95;1.60;;;14.90;99.90;;;;;;4917564;28;20926;-85
2023/06/05 08:28:56;;;;;;;1.65;1.10;;;15.10;99.90;;;;;;4917867;28;20052;-86
2023/06/05 08:31:23;;;;;;;1.63;1.52;;;15.10;99.90;;;;;;4920923;28;20715;-83
2023/06/05 08:33:51;;;;;;;1.30;1.20;;;15.00;99.90;;;;;;4926259;28;20473;-84
2023/06/05 08:36:18;;;;;;;3.03;2.28;;;15.10;99.90;;;;;;4920346;28;20048;-84
2023/06/05 08:38:45;;;;;;;3.28;1.38;;;15.20;99.90;;;;;;4911855;28;20193;-84
2023/06/05 08:41:15;;;;;;;2.08;1.50;;;15.20;99.90;;;;;;4918056;28;20509;-84
2023/06/05 08:43:46;;;;;;;1.90;1.10;;;15.10;99.90;;;;;;4917811;28;20060;-82
2023/06/05 08:46:13;;;;;;;1.55;1.40;;;15.10;99.90;;;;;;4928304;28;20533;-83
2023/06/05 08:48:50;;;;;;;2.00;1.33;;;15.30;99.90;;;;;;4917040;28;20508;-85
2023/06/05 08:51:18;;;;;;;1.50;1.40;;;15.40;99.90;;;;;;4920241;28;20504;-85
2023/06/05 08:53:57;;;;;;;1.48;1.10;;;15.50;99.90;;;;;;4911680;29;20494;-83
2023/06/05 08:56:26;;;;;;;2.03;1.40;;;15.50;99.90;;;;;;4915833;28;20051;-85
2023/06/05 08:58:55;;;;;;;2.08;1.48;;;15.30;99.90;;;;;;4917032;28;20063;-83
2023/06/05 09:01:22;;;;;;;4.95;1.42;;;15.40;99.90;;;;;;4931754;28;20074;-83
2023/06/05 09:03:50;;;;;;;1.67;1.05;;;15.50;99.90;;;;;;4928012;28;20048;-85
2023/06/05 09:06:17;;;;;;;1.35;1.10;;;15.60;99.90;;;;;;4915932;28;20547;-85
2023/06/05 09:08:44;;;;;;;1.35;1.10;;;15.70;99.90;;;;;;4909956;28;20687;-84
2023/06/05 09:11:23;;;;;;;1.40;1.20;;;15.80;99.90;;;;;;4923056;29;20424;-81
2023/06/05 09:13:50;;;;;;;3.53;1.58;;;15.80;99.90;;;;;;4931943;28;20418;-84
2023/06/05 09:16:45;;;;;;;2.08;1.10;;;15.80;99.90;;;;;;4922529;28;20103;-83
2023/06/05 09:19:13;;;;;;;2.25;1.35;;;15.80;99.90;;;;;;4927674;28;20588;-83
2023/06/05 09:21:40;;;;;;;3.25;1.20;;;15.80;99.90;;;;;;4934144;28;20777;-83
2023/06/05 09:24:11;;;;;;;3.55;1.58;;;15.80;99.90;;;;;;4919552;28;20059;-84
2023/06/05 09:27:10;;;;;;;1.42;0.93;;;15.90;99.90;;;;;;4919526;28;20055;-85
2023/06/05 09:29:43;;;;;;;4.32;1.70;;;15.90;99.90;;;;;;4932792;28;20063;-84
2023/06/05 09:32:19;;;;;;;3.58;1.17;;;15.90;99.90;;;;;;4920459;28;20421;-81
2023/06/05 09:34:59;;;;;;;1.55;1.20;;;15.80;99.90;;;;;;4936716;28;20099;-83
2023/06/05 09:37:35;;;;;;;2.25;1.38;;;15.70;99.90;;;;;;4920247;28;20118;-82
2023/06/05 09:40:04;;;;;;;1.60;1.40;;;15.80;99.90;;;;;;4920050;28;20055;-82
2023/06/05 09:42:35;;;;;;;1.38;1.27;;;15.80;99.90;;;;;;4920370;28;20048;-83
2023/06/05 09:45:02;;;;;;;;;;;15.90;99.90;;;;;;4917740;28;20131;-86
2023/06/05 09:47:29;;;;;;;2.40;1.27;;;16.00;99.90;;;;;;4919073;28;19923;-83
2023/06/05 09:50:23;;;;;;;1.90;0.80;;;16.20;99.90;;;;;;4918786;28;20040;-84
2023/06/05 09:52:51;;;;;;;2.85;1.30;;;16.10;99.90;;;;;;4914632;28;20048;-82
2023/06/05 09:55:19;;;;;;;3.65;1.05;;;16.10;99.90;;;;;;4918635;28;20218;-81
2023/06/05 09:57:48;;;;;;;2.78;1.00;;;16.00;99.90;;;;;;4936692;28;20454;-83
2023/06/05 10:00:15;;;;;;;2.20;1.15;;;16.00;99.90;;;;;;4930586;28;20103;-81
2023/06/05 10:02:46;;;;;;;1.45;1.00;;;15.90;99.90;;;;;;4931395;28;20055;-84
2023/06/05 10:05:15;;;;;;;1.63;1.00;;;15.90;99.90;;;;;;4920604;28;20087;-84
2023/06/05 10:07:42;;;;;;;1.65;1.55;;;16.10;99.90;;;;;;4916534;29;20048;-86
2023/06/05 10:10:09;;;;;;;3.88;1.15;;;16.20;99.90;;;;;;4933507;28;20190;-84
2023/06/05 10:12:38;;;;;;;1.35;0.90;;;16.30;99.90;;;;;;4923462;28;20055;-83
2023/06/05 10:15:07;;;;;;;2.85;1.23;;;16.30;99.90;;;;;;4933479;28;20139;-84
2023/06/05 10:17:38;;;;;;;2.70;1.40;;;16.30;99.90;;;;;;4933700;28;20052;-85
2023/06/05 10:20:07;;;;;;;1.40;1.30;;;16.30;99.90;;;;;;4918290;29;20137;-84
2023/06/05 10:22:37;;;;;;;1.60;1.30;;;16.20;99.90;;;;;;4918149;28;20496;-83
2023/06/05 10:25:08;;;;;;;1.95;0.98;;;16.30;99.90;;;;;;4919378;28;20044;-83
2023/06/05 10:28:10;;;;;;;3.33;1.35;;;16.10;99.90;;;;;;4932054;28;20058;-83
2023/06/05 10:30:48;;;;;;;1.88;1.38;;;16.30;99.90;;;;;;4930756;28;20600;-86
2023/06/05 10:33:35;;;;;;;2.80;1.13;;;16.30;99.90;;;;;;4928144;28;20409;-84
2023/06/05 10:36:32;;;;;;;3.13;2.72;;;16.40;99.90;;;;;;4919525;28;20071;-85
2023/06/05 10:39:00;;;;;;;2.85;1.60;;;16.40;99.90;;;;;;4921807;28;20098;-84
2023/06/05 10:41:27;;;;;;;2.88;1.08;;;16.40;99.90;;;;;;4934424;28;20496;-83
2023/06/05 10:43:55;;;;;;;1.60;1.50;;;16.50;99.90;;;;;;4923151;29;20941;-84
2023/06/05 10:46:31;;;;;;;2.15;1.33;;;16.60;99.90;;;;;;4931628;28;20117;-83
2023/06/05 10:49:15;;;;;;;4.05;1.70;;;16.60;99.90;;;;;;4934591;28;20060;-81
2023/06/05 10:51:47;;;;;;;1.92;1.38;;;16.60;99.90;;;;;;4930843;28;20051;-85
2023/06/05 10:54:38;;;;;;;8.52;1.77;;;16.50;99.90;;;;;;4921379;28;20056;-82
2023/06/05 10:57:10;;;;;;;2.15;1.77;;;16.50;99.90;;;;;;4917444;28;20444;-86
2023/06/05 10:59:39;;;;;;;3.28;2.00;;;16.30;99.90;;;;;;4935463;28;20059;-85
2023/06/05 11:02:16;;;;;;;3.58;1.95;;;16.40;99.90;;;;;;4921814;28;20582;-83
2023/06/05 11:04:47;;;;;;;2.28;2.08;;;16.30;99.90;;;;;;4921517;28;20062;-82
2023/06/05 11:07:21;;;;;;;3.10;2.13;;;16.50;99.90;;;;;;4928009;28;20052;-83
2023/06/05 11:10:15;;;;;;;3.35;1.65;;;16.60;99.90;;;;;;4918176;29;20095;-84
2023/06/05 11:12:42;;;;;;;5.03;2.10;;;16.60;99.90;;;;;;4916217;28;20074;-84
2023/06/05 11:15:34;;;;;;;2.90;1.70;;;16.60;99.90;;;;;;4914408;28;20636;-84
2023/06/05 11:18:29;;;;;;;8.55;4.20;;;16.50;99.90;;;;;;4915816;28;20056;-82
2023/06/05 11:20:58;;;;;;;8.55;2.97;;;16.70;99.90;;;;;;4921355;28;20056;-86
2023/06/05 11:23:28;;;;;;;6.10;2.03;;;16.80;99.90;;;;;;4914973;29;20118;-83
2023/06/05 11:25:57;;;;;;;4.35;1.60;;;16.80;99.90;;;;;;4930190;28;20044;-86
2023/06/05 11:28:43;;;;;;;3.88;2.17;;;16.80;99.90;;;;;;4917499;28;20056;-83
2023/06/05 11:31:11;;;;;;;4.80;2.13;;;16.80;99.90;;;;;;4930225;28;20048;-84
2023/06/05 11:33:38;;;;;;;4.53;2.05;;;16.80;99.90;;;;;;4915194;28;20134;-84
2023/06/05 11:36:09;;;;;;;5.75;3.92;;;16.80;99.90;;;;;;4915013;29;20060;-84
2023/06/05 11:38:37;;;;;;;5.25;2.20;;;16.70;99.90;;;;;;4913883;28;20056;-85
2023/06/05 11:41:08;;;;;;;2.28;1.70;;;16.70;99.90;;;;;;4915850;28;20054;-84
2023/06/05 11:43:42;;;;;;;2.97;2.13;;;16.70;99.90;;;;;;4919614;29;20086;-82
2023/06/05 11:46:09;;;;;;;4.65;3.15;;;16.80;99.90;;;;;;4934680;28;20381;-85
2023/06/05 11:48:43;;;;;;;6.13;2.58;;;17.00;99.90;;;;;;4915128;28;20052;-80
2023/06/05 11:51:10;;;;;;;3.25;2.20;;;17.00;99.90;;;;;;4914117;29;20126;-84
2023/06/05 11:53:44;;;;;;;4.57;2.20;;;17.10;99.90;;;;;;4917703;28;20054;-86
2023/06/05 11:56:16;;;;;;;4.35;2.00;;;17.00;99.90;;;;;;4919529;28;20059;-84
2023/06/05 11:58:44;;;;;;;3.22;1.88;;;16.70;99.90;;;;;;4916315;28;20048;-83
2023/06/05 12:01:21;;;;;;;3.63;2.55;;;16.60;99.90;;;;;;4919168;29;20056;-87
2023/06/05 12:04:06;;;;;;;2.78;2.45;;;16.70;99.90;;;;;;4914928;28;20423;-85
2023/06/05 12:06:41;;;;;;;5.05;1.85;;;16.60;99.90;;;;;;4931215;28;20470;-80
2023/06/05 12:09:10;;;;;;;3.28;2.17;;;16.60;99.90;;;;;;4916772;28;20056;-84
2023/06/05 12:11:38;;;;;;;4.60;1.75;;;16.70;99.90;;;;;;4912807;29;20650;-84
2023/06/05 12:14:08;;;;;;;2.97;1.60;;;16.70;99.90;;;;;;4930864;28;20066;-84
2023/06/05 12:16:38;;;;;;;6.32;1.88;;;16.90;99.90;;;;;;4916398;28;20051;-83
2023/06/05 12:19:17;;;;;;;5.57;1.70;;;16.70;99.90;;;;;;4931034;28;20516;-85
2023/06/05 12:21:46;;;;;;;7.00;2.40;;;16.70;99.90;;;;;;4921772;28;20494;-81
2023/06/05 12:24:14;;;;;;;3.33;1.55;;;16.80;99.90;;;;;;4918835;28;20059;-82
2023/06/05 12:26:54;;;;;;;2.22;1.70;;;16.80;99.90;;;;;;4915796;28;20603;-83
2023/06/05 12:29:30;;;;;;;5.40;1.73;;;17.00;99.90;;;;;;4926985;28;20067;-86
2023/06/05 12:31:59;;;;;;;3.05;2.05;;;16.90;99.90;;;;;;4918112;28;20060;-84
2023/06/05 12:34:46;;;;;;;3.17;1.65;;;16.70;99.90;;;;;;4916906;28;20051;-84
2023/06/05 12:37:22;;;;;;;4.03;1.67;;;16.70;99.90;;;;;;4921102;28;20047;-82
2023/06/05 12:39:49;;;;;;;6.70;2.53;;;16.80;99.90;;;;;;4925217;28;20127;-84
2023/06/05 12:42:16;;;;;;;2.38;1.83;;;16.90;99.90;;;;;;4918415;28;20370;-85
2023/06/05 12:44:43;;;;;;;4.63;1.98;;;16.80;99.90;;;;;;4922375;28;20817;-83
2023/06/05 12:47:10;;;;;;;2.08;1.70;;;16.80;99.90;;;;;;4921537;28;20482;-85
2023/06/05 12:49:37;;;;;;;5.63;2.35;;;16.90;99.90;;;;;;4916930;28;20111;-82
2023/06/05 12:52:10;;;;;;;5.78;2.10;;;17.00;99.90;;;;;;4919745;28;20068;-84
2023/06/05 12:54:38;;;;;;;1.58;1.13;;;17.10;99.90;;;;;;4919020;28;20112;-85
2023/06/05 12:57:07;;;;;;;2.42;1.50;;;17.20;99.90;;;;;;4937795;28;20135;-83
2023/06/05 12:59:38;;;;;;;6.50;2.75;;;17.00;99.90;;;;;;4919825;28;20511;-82
2023/06/05 13:02:05;;;;;;;3.65;1.67;;;17.20;99.90;;;;;;4937047;28;20075;-83
2023/06/05 13:04:33;;;;;;;3.50;2.03;;;17.30;99.90;;;;;;4918134;28;20564;-81